sensor_id;sensor_type;location;lat;lon;timestamp;P1;durP1;ratioP1;P2;durP2;ratioP2
51810;SDS011;52468;40.116;18.296;2023-12-22T00:00:17;59.73;;;35.20;;
51810;SDS011;52468;40.116;18.296;2023-12-22T00:02:45;69.03;;;36.63;;
51810;SDS011;52468;40.116;18.296;2023-12-22T00:05:13;66.30;;;36.50;;
51810;SDS011;52468;40.116;18.296;2023-12-22T00:07:41;63.83;;;35.67;;
51810;SDS011;52468;40.116;18.296;2023-12-22T00:10:09;62.53;;;37.13;;
51810;SDS011;52468;40.116;18.296;2023-12-22T00:12:37;58.70;;;34.47;;
51810;SDS011;52468;40.116;18.296;2023-12-22T00:15:08;58.33;;;32.53;;
51810;SDS011;52468;40.116;18.296;2023-12-22T00:17:36;62.43;;;33.97;;
51810;SDS011;52468;40.116;18.296;2023-12-22T00:20:04;61.47;;;33.50;;
51810;SDS011;52468;40.116;18.296;2023-12-22T00:22:32;69.30;;;38.47;;
51810;SDS011;52468;40.116;18.296;2023-12-22T00:25:01;73.20;;;42.87;;
51810;SDS011;52468;40.116;18.296;2023-12-22T00:27:29;56.50;;;33.53;;
51810;SDS011;52468;40.116;18.296;2023-12-22T00:29:57;65.97;;;33.83;;
51810;SDS011;52468;40.116;18.296;2023-12-22T00:32:25;55.40;;;33.47;;
51810;SDS011;52468;40.116;18.296;2023-12-22T00:34:53;49.60;;;29.37;;
51810;SDS011;52468;40.116;18.296;2023-12-22T00:37:22;63.93;;;35.40;;
51810;SDS011;52468;40.116;18.296;2023-12-22T00:39:50;64.63;;;37.27;;
51810;SDS011;52468;40.116;18.296;2023-12-22T00:42:18;47.13;;;27.23;;
51810;SDS011;52468;40.116;18.296;2023-12-22T00:44:46;37.90;;;24.93;;
51810;SDS011;52468;40.116;18.296;2023-12-22T00:47:14;31.50;;;20.03;;
51810;SDS011;52468;40.116;18.296;2023-12-22T00:49:41;33.07;;;20.60;;
51810;SDS011;52468;40.116;18.296;2023-12-22T00:52:09;31.17;;;19.07;;
51810;SDS011;52468;40.116;18.296;2023-12-22T00:54:37;35.67;;;20.33;;
51810;SDS011;52468;40.116;18.296;2023-12-22T00:57:05;29.77;;;17.97;;
51810;SDS011;52468;40.116;18.296;2023-12-22T00:59:33;26.27;;;15.90;;
51810;SDS011;52468;40.116;18.296;2023-12-22T01:02:01;28.77;;;16.97;;
51810;SDS011;52468;40.116;18.296;2023-12-22T01:04:29;28.70;;;16.17;;
51810;SDS011;52468;40.116;18.296;2023-12-22T01:06:57;24.37;;;14.67;;
51810;SDS011;52468;40.116;18.296;2023-12-22T01:09:25;25.87;;;14.07;;
51810;SDS011;52468;40.116;18.296;2023-12-22T01:11:53;27.53;;;16.63;;
51810;SDS011;52468;40.116;18.296;2023-12-22T01:14:20;27.13;;;15.83;;
51810;SDS011;52468;40.116;18.296;2023-12-22T01:16:48;24.93;;;14.73;;
51810;SDS011;52468;40.116;18.296;2023-12-22T01:19:16;23.27;;;14.27;;
51810;SDS011;52468;40.116;18.296;2023-12-22T01:21:44;20.77;;;12.70;;
51810;SDS011;52468;40.116;18.296;2023-12-22T01:24:12;26.63;;;14.67;;
51810;SDS011;52468;40.116;18.296;2023-12-22T01:26:40;24.23;;;14.37;;
51810;SDS011;52468;40.116;18.296;2023-12-22T01:29:08;24.57;;;13.70;;
51810;SDS011;52468;40.116;18.296;2023-12-22T01:31:36;23.20;;;14.57;;
51810;SDS011;52468;40.116;18.296;2023-12-22T01:34:04;22.50;;;13.73;;
51810;SDS011;52468;40.116;18.296;2023-12-22T01:36:33;20.53;;;12.87;;
51810;SDS011;52468;40.116;18.296;2023-12-22T01:39:01;21.77;;;13.07;;
51810;SDS011;52468;40.116;18.296;2023-12-22T01:41:31;18.73;;;12.37;;
51810;SDS011;52468;40.116;18.296;2023-12-22T01:43:59;20.67;;;12.90;;
51810;SDS011;52468;40.116;18.296;2023-12-22T01:46:27;23.20;;;12.03;;
51810;SDS011;52468;40.116;18.296;2023-12-22T01:48:55;21.90;;;12.37;;
51810;SDS011;52468;40.116;18.296;2023-12-22T01:51:23;18.47;;;11.37;;
51810;SDS011;52468;40.116;18.296;2023-12-22T01:53:51;21.83;;;13.00;;
51810;SDS011;52468;40.116;18.296;2023-12-22T01:56:19;35.87;;;13.20;;
51810;SDS011;52468;40.116;18.296;2023-12-22T01:58:47;28.07;;;13.90;;
51810;SDS011;52468;40.116;18.296;2023-12-22T02:01:19;26.53;;;14.07;;
51810;SDS011;52468;40.116;18.296;2023-12-22T02:03:51;27.83;;;14.07;;
51810;SDS011;52468;40.116;18.296;2023-12-22T02:06:20;21.53;;;12.77;;
51810;SDS011;52468;40.116;18.296;2023-12-22T02:08:48;24.30;;;13.10;;
51810;SDS011;52468;40.116;18.296;2023-12-22T02:11:17;24.37;;;12.93;;
51810;SDS011;52468;40.116;18.296;2023-12-22T02:13:44;26.03;;;14.93;;
51810;SDS011;52468;40.116;18.296;2023-12-22T02:16:18;23.47;;;14.03;;
51810;SDS011;52468;40.116;18.296;2023-12-22T02:18:57;32.03;;;14.97;;
51810;SDS011;52468;40.116;18.296;2023-12-22T02:21:31;22.57;;;13.63;;
51810;SDS011;52468;40.116;18.296;2023-12-22T02:23:59;25.67;;;15.53;;
51810;SDS011;52468;40.116;18.296;2023-12-22T02:26:28;25.90;;;14.67;;
51810;SDS011;52468;40.116;18.296;2023-12-22T02:29:04;24.00;;;15.17;;
51810;SDS011;52468;40.116;18.296;2023-12-22T02:31:36;25.27;;;15.10;;
51810;SDS011;52468;40.116;18.296;2023-12-22T02:34:12;24.10;;;14.03;;
51810;SDS011;52468;40.116;18.296;2023-12-22T02:36:44;27.45;;;14.05;;
51810;SDS011;52468;40.116;18.296;2023-12-22T02:39:13;21.70;;;13.13;;
51810;SDS011;52468;40.116;18.296;2023-12-22T02:41:43;22.33;;;13.13;;
51810;SDS011;52468;40.116;18.296;2023-12-22T02:44:12;25.07;;;14.37;;
51810;SDS011;52468;40.116;18.296;2023-12-22T02:46:40;23.83;;;14.00;;
51810;SDS011;52468;40.116;18.296;2023-12-22T02:49:10;24.00;;;13.40;;
51810;SDS011;52468;40.116;18.296;2023-12-22T02:51:40;24.80;;;14.17;;
51810;SDS011;52468;40.116;18.296;2023-12-22T02:54:08;28.23;;;15.13;;
51810;SDS011;52468;40.116;18.296;2023-12-22T02:56:36;24.57;;;14.23;;
51810;SDS011;52468;40.116;18.296;2023-12-22T02:59:04;22.47;;;12.07;;
51810;SDS011;52468;40.116;18.296;2023-12-22T03:01:32;25.87;;;14.27;;
51810;SDS011;52468;40.116;18.296;2023-12-22T03:04:00;26.73;;;12.47;;
51810;SDS011;52468;40.116;18.296;2023-12-22T03:06:28;25.83;;;13.17;;
51810;SDS011;52468;40.116;18.296;2023-12-22T03:08:56;24.00;;;12.50;;
51810;SDS011;52468;40.116;18.296;2023-12-22T03:11:24;19.60;;;11.27;;
51810;SDS011;52468;40.116;18.296;2023-12-22T03:13:51;24.30;;;13.47;;
51810;SDS011;52468;40.116;18.296;2023-12-22T03:16:19;21.57;;;12.43;;
51810;SDS011;52468;40.116;18.296;2023-12-22T03:18:47;21.27;;;11.43;;
51810;SDS011;52468;40.116;18.296;2023-12-22T03:21:18;17.27;;;10.50;;
51810;SDS011;52468;40.116;18.296;2023-12-22T03:23:46;26.53;;;11.63;;
51810;SDS011;52468;40.116;18.296;2023-12-22T03:26:15;25.67;;;11.57;;
51810;SDS011;52468;40.116;18.296;2023-12-22T03:28:43;19.27;;;10.77;;
51810;SDS011;52468;40.116;18.296;2023-12-22T03:31:11;25.27;;;12.60;;
51810;SDS011;52468;40.116;18.296;2023-12-22T03:33:38;18.00;;;9.47;;
51810;SDS011;52468;40.116;18.296;2023-12-22T03:36:06;18.80;;;10.37;;
51810;SDS011;52468;40.116;18.296;2023-12-22T03:38:34;14.40;;;8.47;;
51810;SDS011;52468;40.116;18.296;2023-12-22T03:41:02;12.83;;;8.07;;
51810;SDS011;52468;40.116;18.296;2023-12-22T03:43:30;13.83;;;8.27;;
51810;SDS011;52468;40.116;18.296;2023-12-22T03:45:58;11.97;;;7.33;;
51810;SDS011;52468;40.116;18.296;2023-12-22T03:48:26;17.23;;;7.27;;
51810;SDS011;52468;40.116;18.296;2023-12-22T03:50:54;16.23;;;6.83;;
51810;SDS011;52468;40.116;18.296;2023-12-22T03:53:22;15.37;;;6.63;;
51810;SDS011;52468;40.116;18.296;2023-12-22T03:55:50;18.33;;;6.13;;
51810;SDS011;52468;40.116;18.296;2023-12-22T03:58:17;16.47;;;6.00;;
51810;SDS011;52468;40.116;18.296;2023-12-22T04:00:45;18.40;;;5.70;;
51810;SDS011;52468;40.116;18.296;2023-12-22T04:03:14;20.70;;;5.33;;
51810;SDS011;52468;40.116;18.296;2023-12-22T04:05:42;6.40;;;3.30;;
51810;SDS011;52468;40.116;18.296;2023-12-22T04:08:10;14.97;;;4.03;;
51810;SDS011;52468;40.116;18.296;2023-12-22T04:10:38;10.00;;;3.40;;
51810;SDS011;52468;40.116;18.296;2023-12-22T04:13:05;9.67;;;3.10;;
51810;SDS011;52468;40.116;18.296;2023-12-22T04:15:33;10.27;;;4.17;;
51810;SDS011;52468;40.116;18.296;2023-12-22T04:18:01;10.80;;;4.90;;
51810;SDS011;52468;40.116;18.296;2023-12-22T04:20:29;17.40;;;4.37;;
51810;SDS011;52468;40.116;18.296;2023-12-22T04:22:57;14.60;;;5.87;;
51810;SDS011;52468;40.116;18.296;2023-12-22T04:25:25;9.43;;;3.83;;
51810;SDS011;52468;40.116;18.296;2023-12-22T04:27:53;10.33;;;4.80;;
51810;SDS011;52468;40.116;18.296;2023-12-22T04:30:21;17.70;;;4.40;;
51810;SDS011;52468;40.116;18.296;2023-12-22T04:32:49;12.73;;;3.83;;
51810;SDS011;52468;40.116;18.296;2023-12-22T04:35:17;10.03;;;3.40;;
51810;SDS011;52468;40.116;18.296;2023-12-22T04:37:45;6.47;;;4.23;;
51810;SDS011;52468;40.116;18.296;2023-12-22T04:40:13;11.80;;;3.87;;
51810;SDS011;52468;40.116;18.296;2023-12-22T04:42:41;15.60;;;4.77;;
51810;SDS011;52468;40.116;18.296;2023-12-22T04:45:09;9.87;;;4.23;;
51810;SDS011;52468;40.116;18.296;2023-12-22T04:47:37;9.50;;;3.93;;
51810;SDS011;52468;40.116;18.296;2023-12-22T04:50:05;10.97;;;4.43;;
51810;SDS011;52468;40.116;18.296;2023-12-22T04:52:33;10.53;;;3.47;;
51810;SDS011;52468;40.116;18.296;2023-12-22T04:55:01;13.77;;;4.57;;
51810;SDS011;52468;40.116;18.296;2023-12-22T04:57:29;17.90;;;4.63;;
51810;SDS011;52468;40.116;18.296;2023-12-22T04:59:57;12.20;;;3.97;;
51810;SDS011;52468;40.116;18.296;2023-12-22T05:02:25;11.47;;;3.10;;
51810;SDS011;52468;40.116;18.296;2023-12-22T05:04:53;15.40;;;4.47;;
51810;SDS011;52468;40.116;18.296;2023-12-22T05:07:21;8.93;;;4.13;;
51810;SDS011;52468;40.116;18.296;2023-12-22T05:09:49;10.30;;;3.70;;
51810;SDS011;52468;40.116;18.296;2023-12-22T05:12:16;7.20;;;3.53;;
51810;SDS011;52468;40.116;18.296;2023-12-22T05:14:44;7.43;;;3.83;;
51810;SDS011;52468;40.116;18.296;2023-12-22T05:17:12;11.03;;;4.43;;
51810;SDS011;52468;40.116;18.296;2023-12-22T05:19:40;10.73;;;3.90;;
51810;SDS011;52468;40.116;18.296;2023-12-22T05:22:08;12.87;;;3.50;;
51810;SDS011;52468;40.116;18.296;2023-12-22T05:24:36;7.57;;;3.23;;
51810;SDS011;52468;40.116;18.296;2023-12-22T05:27:05;15.63;;;4.13;;
51810;SDS011;52468;40.116;18.296;2023-12-22T05:29:33;8.53;;;4.33;;
51810;SDS011;52468;40.116;18.296;2023-12-22T05:32:01;13.67;;;5.40;;
51810;SDS011;52468;40.116;18.296;2023-12-22T05:34:29;8.73;;;4.67;;
51810;SDS011;52468;40.116;18.296;2023-12-22T05:36:58;5.27;;;4.27;;
51810;SDS011;52468;40.116;18.296;2023-12-22T05:39:26;14.73;;;4.93;;
51810;SDS011;52468;40.116;18.296;2023-12-22T05:41:54;7.07;;;4.30;;
51810;SDS011;52468;40.116;18.296;2023-12-22T05:44:21;12.93;;;5.07;;
51810;SDS011;52468;40.116;18.296;2023-12-22T05:46:51;7.27;;;4.33;;
51810;SDS011;52468;40.116;18.296;2023-12-22T05:49:19;8.00;;;4.63;;
51810;SDS011;52468;40.116;18.296;2023-12-22T05:51:47;10.63;;;5.27;;
51810;SDS011;52468;40.116;18.296;2023-12-22T05:54:14;8.33;;;4.60;;
51810;SDS011;52468;40.116;18.296;2023-12-22T05:56:44;8.50;;;4.87;;
51810;SDS011;52468;40.116;18.296;2023-12-22T05:59:12;11.07;;;4.73;;
51810;SDS011;52468;40.116;18.296;2023-12-22T06:01:40;9.10;;;5.53;;
51810;SDS011;52468;40.116;18.296;2023-12-22T06:04:08;11.30;;;5.30;;
51810;SDS011;52468;40.116;18.296;2023-12-22T06:06:36;11.43;;;4.83;;
51810;SDS011;52468;40.116;18.296;2023-12-22T06:09:05;9.57;;;4.83;;
51810;SDS011;52468;40.116;18.296;2023-12-22T06:11:33;12.40;;;5.43;;
51810;SDS011;52468;40.116;18.296;2023-12-22T06:14:01;12.00;;;4.80;;
51810;SDS011;52468;40.116;18.296;2023-12-22T06:16:29;12.67;;;5.40;;
51810;SDS011;52468;40.116;18.296;2023-12-22T06:18:57;10.17;;;5.23;;
51810;SDS011;52468;40.116;18.296;2023-12-22T06:21:25;14.53;;;4.67;;
51810;SDS011;52468;40.116;18.296;2023-12-22T06:23:53;15.23;;;5.10;;
51810;SDS011;52468;40.116;18.296;2023-12-22T06:26:21;14.03;;;5.30;;
51810;SDS011;52468;40.116;18.296;2023-12-22T06:28:49;7.50;;;4.63;;
51810;SDS011;52468;40.116;18.296;2023-12-22T06:31:20;11.70;;;5.50;;
51810;SDS011;52468;40.116;18.296;2023-12-22T06:33:49;14.17;;;5.63;;
51810;SDS011;52468;40.116;18.296;2023-12-22T06:36:20;18.00;;;6.73;;
51810;SDS011;52468;40.116;18.296;2023-12-22T06:38:51;13.60;;;4.87;;
51810;SDS011;52468;40.116;18.296;2023-12-22T06:41:26;8.17;;;4.90;;
51810;SDS011;52468;40.116;18.296;2023-12-22T06:43:58;9.40;;;5.30;;
51810;SDS011;52468;40.116;18.296;2023-12-22T06:46:29;13.00;;;5.40;;
51810;SDS011;52468;40.116;18.296;2023-12-22T06:48:58;9.90;;;5.37;;
51810;SDS011;52468;40.116;18.296;2023-12-22T06:51:26;14.73;;;5.07;;
51810;SDS011;52468;40.116;18.296;2023-12-22T06:53:57;12.73;;;4.60;;
51810;SDS011;52468;40.116;18.296;2023-12-22T06:56:28;11.47;;;5.67;;
51810;SDS011;52468;40.116;18.296;2023-12-22T06:58:58;19.47;;;9.47;;
51810;SDS011;52468;40.116;18.296;2023-12-22T07:01:29;19.57;;;11.07;;
51810;SDS011;52468;40.116;18.296;2023-12-22T07:04:01;53.47;;;23.80;;
51810;SDS011;52468;40.116;18.296;2023-12-22T07:06:34;42.60;;;22.40;;
51810;SDS011;52468;40.116;18.296;2023-12-22T07:11:39;29.63;;;11.00;;
51810;SDS011;52468;40.116;18.296;2023-12-22T07:14:10;26.50;;;12.27;;
51810;SDS011;52468;40.116;18.296;2023-12-22T07:16:38;21.33;;;9.17;;
51810;SDS011;52468;40.116;18.296;2023-12-22T07:19:06;17.90;;;7.67;;
51810;SDS011;52468;40.116;18.296;2023-12-22T07:21:34;15.53;;;6.73;;
51810;SDS011;52468;40.116;18.296;2023-12-22T07:24:02;14.40;;;5.67;;
51810;SDS011;52468;40.116;18.296;2023-12-22T07:26:30;15.40;;;6.53;;
51810;SDS011;52468;40.116;18.296;2023-12-22T07:28:58;19.87;;;6.57;;
51810;SDS011;52468;40.116;18.296;2023-12-22T07:31:26;14.60;;;6.93;;
51810;SDS011;52468;40.116;18.296;2023-12-22T07:33:54;13.33;;;4.67;;
51810;SDS011;52468;40.116;18.296;2023-12-22T07:36:22;6.33;;;4.30;;
51810;SDS011;52468;40.116;18.296;2023-12-22T07:38:50;14.10;;;4.63;;
51810;SDS011;52468;40.116;18.296;2023-12-22T07:41:18;15.87;;;5.83;;
51810;SDS011;52468;40.116;18.296;2023-12-22T07:43:46;14.67;;;3.53;;
51810;SDS011;52468;40.116;18.296;2023-12-22T07:46:20;11.03;;;5.63;;
51810;SDS011;52468;40.116;18.296;2023-12-22T07:48:49;7.77;;;4.93;;
51810;SDS011;52468;40.116;18.296;2023-12-22T07:51:18;11.20;;;3.87;;
51810;SDS011;52468;40.116;18.296;2023-12-22T07:53:46;8.77;;;3.90;;
51810;SDS011;52468;40.116;18.296;2023-12-22T07:56:14;14.10;;;4.63;;
51810;SDS011;52468;40.116;18.296;2023-12-22T07:58:41;8.87;;;4.07;;
51810;SDS011;52468;40.116;18.296;2023-12-22T08:01:09;12.90;;;4.97;;
51810;SDS011;52468;40.116;18.296;2023-12-22T08:03:37;12.57;;;4.23;;
51810;SDS011;52468;40.116;18.296;2023-12-22T08:06:05;15.33;;;4.80;;
51810;SDS011;52468;40.116;18.296;2023-12-22T08:08:34;4.87;;;3.20;;
51810;SDS011;52468;40.116;18.296;2023-12-22T08:11:03;11.03;;;3.07;;
51810;SDS011;52468;40.116;18.296;2023-12-22T08:13:31;5.13;;;2.40;;
51810;SDS011;52468;40.116;18.296;2023-12-22T08:15:59;8.30;;;3.20;;
51810;SDS011;52468;40.116;18.296;2023-12-22T08:18:27;8.27;;;3.23;;
51810;SDS011;52468;40.116;18.296;2023-12-22T08:20:55;12.53;;;3.03;;
51810;SDS011;52468;40.116;18.296;2023-12-22T08:23:23;10.27;;;2.60;;
51810;SDS011;52468;40.116;18.296;2023-12-22T08:25:51;9.60;;;2.33;;
51810;SDS011;52468;40.116;18.296;2023-12-22T08:28:19;7.40;;;3.27;;
51810;SDS011;52468;40.116;18.296;2023-12-22T08:30:47;6.77;;;2.17;;
51810;SDS011;52468;40.116;18.296;2023-12-22T08:33:15;9.00;;;3.17;;
51810;SDS011;52468;40.116;18.296;2023-12-22T08:35:43;11.13;;;2.53;;
51810;SDS011;52468;40.116;18.296;2023-12-22T08:38:11;5.20;;;2.27;;
51810;SDS011;52468;40.116;18.296;2023-12-22T08:40:40;7.77;;;2.50;;
51810;SDS011;52468;40.116;18.296;2023-12-22T08:43:08;13.73;;;2.73;;
51810;SDS011;52468;40.116;18.296;2023-12-22T08:45:36;8.07;;;3.40;;
51810;SDS011;52468;40.116;18.296;2023-12-22T08:48:04;4.37;;;2.47;;
51810;SDS011;52468;40.116;18.296;2023-12-22T08:50:35;8.97;;;2.50;;
51810;SDS011;52468;40.116;18.296;2023-12-22T08:53:03;6.57;;;1.93;;
51810;SDS011;52468;40.116;18.296;2023-12-22T08:55:31;3.87;;;1.77;;
51810;SDS011;52468;40.116;18.296;2023-12-22T08:57:59;3.60;;;1.20;;
51810;SDS011;52468;40.116;18.296;2023-12-22T09:00:28;2.93;;;1.90;;
51810;SDS011;52468;40.116;18.296;2023-12-22T09:02:56;9.93;;;2.60;;
51810;SDS011;52468;40.116;18.296;2023-12-22T09:05:24;8.37;;;2.10;;
51810;SDS011;52468;40.116;18.296;2023-12-22T09:07:52;8.73;;;2.10;;
51810;SDS011;52468;40.116;18.296;2023-12-22T09:10:20;5.47;;;2.50;;
51810;SDS011;52468;40.116;18.296;2023-12-22T09:12:48;8.93;;;2.37;;
51810;SDS011;52468;40.116;18.296;2023-12-22T09:15:16;3.63;;;1.10;;
51810;SDS011;52468;40.116;18.296;2023-12-22T09:17:44;4.43;;;1.90;;
51810;SDS011;52468;40.116;18.296;2023-12-22T09:20:12;2.63;;;1.57;;
51810;SDS011;52468;40.116;18.296;2023-12-22T09:22:39;2.87;;;1.37;;
51810;SDS011;52468;40.116;18.296;2023-12-22T09:25:07;9.13;;;1.57;;
51810;SDS011;52468;40.116;18.296;2023-12-22T09:27:36;5.87;;;1.87;;
51810;SDS011;52468;40.116;18.296;2023-12-22T09:30:04;7.33;;;1.30;;
51810;SDS011;52468;40.116;18.296;2023-12-22T09:32:35;6.07;;;1.53;;
51810;SDS011;52468;40.116;18.296;2023-12-22T09:35:03;3.17;;;1.40;;
51810;SDS011;52468;40.116;18.296;2023-12-22T09:37:32;3.90;;;2.47;;
51810;SDS011;52468;40.116;18.296;2023-12-22T09:40:00;6.40;;;1.23;;
51810;SDS011;52468;40.116;18.296;2023-12-22T09:42:29;3.20;;;1.43;;
51810;SDS011;52468;40.116;18.296;2023-12-22T09:44:56;3.63;;;2.07;;
51810;SDS011;52468;40.116;18.296;2023-12-22T09:47:29;2.88;;;1.80;;
51810;SDS011;52468;40.116;18.296;2023-12-22T09:50:01;5.03;;;1.27;;
51810;SDS011;52468;40.116;18.296;2023-12-22T09:52:29;2.70;;;1.30;;
51810;SDS011;52468;40.116;18.296;2023-12-22T09:54:59;3.67;;;2.17;;
51810;SDS011;52468;40.116;18.296;2023-12-22T09:57:27;6.17;;;1.47;;
51810;SDS011;52468;40.116;18.296;2023-12-22T09:59:56;6.17;;;1.50;;
51810;SDS011;52468;40.116;18.296;2023-12-22T10:02:26;2.00;;;1.53;;
51810;SDS011;52468;40.116;18.296;2023-12-22T10:04:56;5.33;;;2.37;;
51810;SDS011;52468;40.116;18.296;2023-12-22T10:07:24;2.63;;;0.90;;
51810;SDS011;52468;40.116;18.296;2023-12-22T10:09:54;5.10;;;1.50;;
51810;SDS011;52468;40.116;18.296;2023-12-22T10:12:24;4.47;;;1.50;;
51810;SDS011;52468;40.116;18.296;2023-12-22T10:14:57;3.53;;;1.53;;
51810;SDS011;52468;40.116;18.296;2023-12-22T10:17:27;2.00;;;1.10;;
51810;SDS011;52468;40.116;18.296;2023-12-22T10:19:56;1.80;;;0.93;;
51810;SDS011;52468;40.116;18.296;2023-12-22T10:22:24;6.50;;;1.23;;
51810;SDS011;52468;40.116;18.296;2023-12-22T10:24:52;3.03;;;1.13;;
51810;SDS011;52468;40.116;18.296;2023-12-22T10:27:20;3.97;;;1.60;;
51810;SDS011;52468;40.116;18.296;2023-12-22T10:29:55;2.70;;;1.23;;
51810;SDS011;52468;40.116;18.296;2023-12-22T10:32:23;4.88;;;1.27;;
51810;SDS011;52468;40.116;18.296;2023-12-22T10:34:52;2.93;;;1.47;;
51810;SDS011;52468;40.116;18.296;2023-12-22T10:37:21;3.70;;;1.27;;
51810;SDS011;52468;40.116;18.296;2023-12-22T10:39:54;4.20;;;1.77;;
51810;SDS011;52468;40.116;18.296;2023-12-22T10:42:22;6.20;;;1.50;;
51810;SDS011;52468;40.116;18.296;2023-12-22T10:44:51;3.57;;;1.37;;
51810;SDS011;52468;40.116;18.296;2023-12-22T10:47:20;1.70;;;0.97;;
51810;SDS011;52468;40.116;18.296;2023-12-22T10:49:49;8.20;;;2.67;;
51810;SDS011;52468;40.116;18.296;2023-12-22T10:52:18;6.17;;;1.60;;
51810;SDS011;52468;40.116;18.296;2023-12-22T10:54:50;8.07;;;1.97;;
51810;SDS011;52468;40.116;18.296;2023-12-22T10:57:18;8.73;;;2.23;;
51810;SDS011;52468;40.116;18.296;2023-12-22T10:59:49;3.47;;;1.60;;
51810;SDS011;52468;40.116;18.296;2023-12-22T11:02:20;2.77;;;2.17;;
51810;SDS011;52468;40.116;18.296;2023-12-22T11:07:30;9.20;;;1.53;;
51810;SDS011;52468;40.116;18.296;2023-12-22T11:10:03;6.40;;;1.30;;
51810;SDS011;52468;40.116;18.296;2023-12-22T11:12:35;3.53;;;1.20;;
51810;SDS011;52468;40.116;18.296;2023-12-22T11:15:04;5.73;;;2.23;;
51810;SDS011;52468;40.116;18.296;2023-12-22T11:17:34;5.90;;;1.80;;
51810;SDS011;52468;40.116;18.296;2023-12-22T11:20:08;4.18;;;1.40;;
51810;SDS011;52468;40.116;18.296;2023-12-22T11:22:38;7.57;;;3.37;;
51810;SDS011;52468;40.116;18.296;2023-12-22T11:25:07;7.83;;;2.03;;
51810;SDS011;52468;40.116;18.296;2023-12-22T11:27:36;7.33;;;1.83;;
51810;SDS011;52468;40.116;18.296;2023-12-22T11:30:05;5.97;;;1.40;;
51810;SDS011;52468;40.116;18.296;2023-12-22T11:32:36;3.17;;;1.03;;
51810;SDS011;52468;40.116;18.296;2023-12-22T11:35:05;1.63;;;1.40;;
51810;SDS011;52468;40.116;18.296;2023-12-22T11:37:35;5.43;;;1.37;;
51810;SDS011;52468;40.116;18.296;2023-12-22T11:40:04;5.67;;;1.60;;
51810;SDS011;52468;40.116;18.296;2023-12-22T11:42:37;3.63;;;1.80;;
51810;SDS011;52468;40.116;18.296;2023-12-22T11:45:11;5.87;;;1.80;;
51810;SDS011;52468;40.116;18.296;2023-12-22T11:47:42;3.40;;;1.53;;
51810;SDS011;52468;40.116;18.296;2023-12-22T11:50:10;4.27;;;1.73;;
51810;SDS011;52468;40.116;18.296;2023-12-22T11:52:39;3.80;;;1.23;;
51810;SDS011;52468;40.116;18.296;2023-12-22T11:55:07;3.20;;;1.10;;
51810;SDS011;52468;40.116;18.296;2023-12-22T11:57:36;5.87;;;1.80;;
51810;SDS011;52468;40.116;18.296;2023-12-22T12:00:06;1.73;;;1.07;;
51810;SDS011;52468;40.116;18.296;2023-12-22T12:02:39;2.42;;;1.48;;
51810;SDS011;52468;40.116;18.296;2023-12-22T12:05:08;4.20;;;1.20;;
51810;SDS011;52468;40.116;18.296;2023-12-22T12:10:08;4.20;;;1.23;;
51810;SDS011;52468;40.116;18.296;2023-12-22T12:12:36;4.30;;;1.30;;
51810;SDS011;52468;40.116;18.296;2023-12-22T12:15:09;2.97;;;1.30;;
51810;SDS011;52468;40.116;18.296;2023-12-22T12:17:40;6.37;;;1.37;;
51810;SDS011;52468;40.116;18.296;2023-12-22T12:20:10;5.47;;;2.20;;
51810;SDS011;52468;40.116;18.296;2023-12-22T12:22:42;4.20;;;1.13;;
51810;SDS011;52468;40.116;18.296;2023-12-22T12:25:10;8.67;;;1.87;;
51810;SDS011;52468;40.116;18.296;2023-12-22T12:27:42;3.97;;;2.10;;
51810;SDS011;52468;40.116;18.296;2023-12-22T12:30:13;5.27;;;2.07;;
51810;SDS011;52468;40.116;18.296;2023-12-22T12:32:42;6.07;;;1.77;;
51810;SDS011;52468;40.116;18.296;2023-12-22T12:35:13;3.47;;;1.60;;
51810;SDS011;52468;40.116;18.296;2023-12-22T12:37:42;3.70;;;1.40;;
51810;SDS011;52468;40.116;18.296;2023-12-22T12:40:13;8.33;;;1.50;;
51810;SDS011;52468;40.116;18.296;2023-12-22T12:42:45;10.90;;;4.53;;
51810;SDS011;52468;40.116;18.296;2023-12-22T12:45:14;2.73;;;1.30;;
51810;SDS011;52468;40.116;18.296;2023-12-22T12:47:42;4.80;;;1.57;;
51810;SDS011;52468;40.116;18.296;2023-12-22T12:50:10;3.73;;;1.50;;
51810;SDS011;52468;40.116;18.296;2023-12-22T12:52:38;2.90;;;1.60;;
51810;SDS011;52468;40.116;18.296;2023-12-22T12:55:06;2.97;;;1.53;;
51810;SDS011;52468;40.116;18.296;2023-12-22T12:57:34;6.50;;;1.87;;
51810;SDS011;52468;40.116;18.296;2023-12-22T13:00:02;4.93;;;1.90;;
51810;SDS011;52468;40.116;18.296;2023-12-22T13:02:31;3.90;;;1.57;;
51810;SDS011;52468;40.116;18.296;2023-12-22T13:05:03;8.57;;;1.17;;
51810;SDS011;52468;40.116;18.296;2023-12-22T13:07:32;2.73;;;1.13;;
51810;SDS011;52468;40.116;18.296;2023-12-22T13:10:00;4.87;;;1.43;;
51810;SDS011;52468;40.116;18.296;2023-12-22T13:12:28;3.13;;;1.33;;
51810;SDS011;52468;40.116;18.296;2023-12-22T13:15:01;5.17;;;1.10;;
51810;SDS011;52468;40.116;18.296;2023-12-22T13:17:30;7.60;;;1.63;;
51810;SDS011;52468;40.116;18.296;2023-12-22T13:19:58;9.40;;;2.10;;
51810;SDS011;52468;40.116;18.296;2023-12-22T13:22:26;3.47;;;2.13;;
51810;SDS011;52468;40.116;18.296;2023-12-22T13:24:54;8.43;;;1.83;;
51810;SDS011;52468;40.116;18.296;2023-12-22T13:27:24;9.60;;;1.60;;
51810;SDS011;52468;40.116;18.296;2023-12-22T13:29:52;8.80;;;2.17;;
51810;SDS011;52468;40.116;18.296;2023-12-22T13:32:22;5.00;;;2.33;;
51810;SDS011;52468;40.116;18.296;2023-12-22T13:34:54;2.93;;;1.37;;
51810;SDS011;52468;40.116;18.296;2023-12-22T13:37:22;3.90;;;1.60;;
51810;SDS011;52468;40.116;18.296;2023-12-22T13:39:53;5.63;;;2.17;;
51810;SDS011;52468;40.116;18.296;2023-12-22T13:42:21;4.30;;;1.47;;
51810;SDS011;52468;40.116;18.296;2023-12-22T13:44:49;4.27;;;1.50;;
51810;SDS011;52468;40.116;18.296;2023-12-22T13:47:19;3.87;;;1.53;;
51810;SDS011;52468;40.116;18.296;2023-12-22T13:49:47;4.83;;;1.60;;
51810;SDS011;52468;40.116;18.296;2023-12-22T13:52:25;6.13;;;1.40;;
51810;SDS011;52468;40.116;18.296;2023-12-22T13:54:54;6.63;;;1.90;;
51810;SDS011;52468;40.116;18.296;2023-12-22T13:57:24;10.33;;;1.70;;
51810;SDS011;52468;40.116;18.296;2023-12-22T13:59:52;4.07;;;1.70;;
51810;SDS011;52468;40.116;18.296;2023-12-22T14:02:23;5.83;;;2.03;;
51810;SDS011;52468;40.116;18.296;2023-12-22T14:04:51;6.13;;;2.23;;
51810;SDS011;52468;40.116;18.296;2023-12-22T14:07:19;5.13;;;1.97;;
51810;SDS011;52468;40.116;18.296;2023-12-22T14:09:47;7.83;;;2.00;;
51810;SDS011;52468;40.116;18.296;2023-12-22T14:12:15;11.67;;;3.27;;
51810;SDS011;52468;40.116;18.296;2023-12-22T14:14:44;4.37;;;2.10;;
51810;SDS011;52468;40.116;18.296;2023-12-22T14:17:12;5.93;;;2.03;;
51810;SDS011;52468;40.116;18.296;2023-12-22T14:19:40;5.70;;;1.93;;
51810;SDS011;52468;40.116;18.296;2023-12-22T14:22:08;10.10;;;1.97;;
51810;SDS011;52468;40.116;18.296;2023-12-22T14:24:36;11.40;;;2.40;;
51810;SDS011;52468;40.116;18.296;2023-12-22T14:27:03;5.67;;;1.70;;
51810;SDS011;52468;40.116;18.296;2023-12-22T14:29:31;6.97;;;2.10;;
51810;SDS011;52468;40.116;18.296;2023-12-22T14:32:01;5.73;;;1.77;;
51810;SDS011;52468;40.116;18.296;2023-12-22T14:34:29;9.53;;;2.17;;
51810;SDS011;52468;40.116;18.296;2023-12-22T14:36:59;5.57;;;2.27;;
51810;SDS011;52468;40.116;18.296;2023-12-22T14:39:28;7.37;;;1.40;;